Time;durP1;ratioP1;P1;durP2;ratioP2;P2;SDS_P1;SDS_P2;PMS_P1;PMS_P2;Temp;Humidity;BMP_temperature;BMP_pressure;BME280_temperature;BME280_humidity;BME280_pressure;Samples;Min_cycle;Max_cycle;Signal;HPM_P1;HPM_P2
2021/03/16 00:00:19;;;;;;;12.17;1.80;;;2.90;99.90;;;;;;5058123;28;20182;-69
2021/03/16 00:02:45;;;;;;;2.00;1.30;;;2.90;99.90;;;;;;5060404;28;20187;-70
2021/03/16 00:05:11;;;;;;;3.50;1.87;;;2.90;99.90;;;;;;5061490;28;20434;-69
2021/03/16 00:07:36;;;;;;;6.40;1.77;;;2.80;99.90;;;;;;5059985;28;20517;-69
2021/03/16 00:10:03;;;;;;;3.33;1.70;;;2.80;99.90;;;;;;5059637;28;20520;-69
2021/03/16 00:12:29;;;;;;;2.57;1.30;;;2.80;99.90;;;;;;5076942;28;20189;-69
2021/03/16 00:14:54;;;;;;;1.80;1.50;;;2.70;99.90;;;;;;5058071;28;20419;-70
2021/03/16 00:17:20;;;;;;;2.30;1.10;;;2.70;99.90;;;;;;5057928;28;20261;-69
2021/03/16 00:19:46;;;;;;;2.97;1.20;;;2.60;99.90;;;;;;5058682;28;20263;-69
2021/03/16 00:22:12;;;;;;;1.47;1.37;;;2.60;99.90;;;;;;5062383;28;20189;-70
2021/03/16 00:24:38;;;;;;;2.93;1.40;;;2.50;99.90;;;;;;5055438;28;20428;-69
2021/03/16 00:27:04;;;;;;;2.00;1.40;;;2.50;99.90;;;;;;5060600;28;20564;-69
2021/03/16 00:29:30;;;;;;;7.63;2.03;;;2.50;99.90;;;;;;5058213;28;20544;-69
2021/03/16 00:31:56;;;;;;;3.63;1.20;;;2.50;99.90;;;;;;5060744;28;20484;-69
2021/03/16 00:34:21;;;;;;;1.30;1.17;;;2.40;99.90;;;;;;5057702;28;20238;-69
2021/03/16 00:36:47;;;;;;;3.30;1.57;;;2.40;99.90;;;;;;5061246;28;20904;-69
2021/03/16 00:39:13;;;;;;;5.03;1.43;;;2.30;99.90;;;;;;5058928;28;20182;-70
2021/03/16 00:41:38;;;;;;;4.83;1.60;;;2.20;99.90;;;;;;5060003;28;20268;-69
2021/03/16 00:44:04;;;;;;;5.23;1.90;;;2.20;99.90;;;;;;5057458;28;20260;-69
2021/03/16 00:46:30;;;;;;;1.60;1.50;;;2.20;99.90;;;;;;5061406;28;20177;-69
2021/03/16 00:48:55;;;;;;;6.90;1.50;;;2.10;99.90;;;;;;5061912;28;20229;-70
2021/03/16 00:51:21;;;;;;;3.87;1.43;;;2.20;99.90;;;;;;5057541;28;20223;-69
2021/03/16 00:53:47;;;;;;;3.43;1.53;;;2.20;99.90;;;;;;5058172;28;20181;-70
2021/03/16 00:56:12;;;;;;;4.40;1.30;;;2.20;99.90;;;;;;5055351;28;20195;-70
2021/03/16 00:58:38;;;;;;;7.90;3.00;;;2.10;99.90;;;;;;5057968;28;20192;-70
2021/03/16 01:01:07;;;;;;;1.63;1.47;;;2.10;99.90;;;;;;5055360;28;20184;-70
2021/03/16 01:03:34;;;;;;;1.40;1.10;;;2.10;99.90;;;;;;5057612;28;20184;-70
2021/03/16 01:06:00;;;;;;;3.60;1.33;;;2.10;99.90;;;;;;5059758;28;20509;-70
2021/03/16 01:08:25;;;;;;;7.93;1.80;;;2.00;99.90;;;;;;5054967;28;20520;-70
2021/03/16 01:10:52;;;;;;;5.30;1.80;;;2.00;99.90;;;;;;5053094;28;20463;-70
2021/03/16 01:13:19;;;;;;;4.20;1.97;;;1.90;99.90;;;;;;5059119;28;20183;-70
2021/03/16 01:15:45;;;;;;;6.27;1.63;;;1.90;99.90;;;;;;5056073;28;20437;-70
2021/03/16 01:18:11;;;;;;;2.20;1.27;;;1.90;99.90;;;;;;5059953;28;20431;-70
2021/03/16 01:20:37;;;;;;;6.20;1.50;;;1.90;99.90;;;;;;5056688;28;20580;-70
2021/03/16 01:23:03;;;;;;;7.47;1.47;;;1.80;99.90;;;;;;5058914;28;21014;-70
2021/03/16 01:25:29;;;;;;;4.50;1.10;;;1.80;99.90;;;;;;5053309;28;20188;-70
2021/03/16 01:27:57;;;;;;;1.73;1.07;;;1.80;99.90;;;;;;5058409;28;20435;-70
2021/03/16 01:30:23;;;;;;;1.50;1.40;;;1.80;99.90;;;;;;5058015;28;20220;-70
2021/03/16 01:32:53;;;;;;;3.63;1.73;;;1.80;99.90;;;;;;5059175;28;20748;-71
2021/03/16 01:35:19;;;;;;;2.03;1.10;;;1.70;99.90;;;;;;5060167;28;20433;-71
2021/03/16 01:37:45;;;;;;;4.80;1.80;;;1.70;99.90;;;;;;5058551;28;20498;-71
2021/03/16 01:40:16;;;;;;;2.10;1.10;;;1.80;99.90;;;;;;5056955;28;20440;-70
2021/03/16 01:42:43;;;;;;;1.47;1.37;;;1.80;99.90;;;;;;5060604;28;20446;-71
2021/03/16 01:45:16;;;;;;;2.40;1.50;;;1.70;99.90;;;;;;5061081;28;20492;-71
2021/03/16 01:47:50;;;;;;;3.17;1.67;;;1.60;99.90;;;;;;5060460;28;20517;-71
2021/03/16 01:50:18;;;;;;;1.40;1.30;;;1.60;99.90;;;;;;5060483;28;20456;-71
2021/03/16 01:52:45;;;;;;;1.17;1.07;;;1.50;99.90;;;;;;5059475;28;20900;-71
2021/03/16 01:55:12;;;;;;;1.60;1.50;;;1.50;99.90;;;;;;5061344;28;20437;-71
2021/03/16 01:57:40;;;;;;;1.23;1.13;;;1.40;99.90;;;;;;5060934;28;20423;-71
2021/03/16 02:00:07;;;;;;;1.70;1.27;;;1.40;99.90;;;;;;5058385;28;20434;-71
2021/03/16 02:02:34;;;;;;;1.70;1.60;;;1.30;99.90;;;;;;5057343;28;20426;-71
2021/03/16 02:04:59;;;;;;;1.63;1.23;;;1.20;99.90;;;;;;5060296;28;20435;-71
2021/03/16 02:08:06;;;;;;;4.20;1.70;;;1.20;99.90;;;;;;5059765;28;20431;-71
2021/03/16 02:10:42;;;;;;;2.80;1.77;;;1.20;99.90;;;;;;5039417;28;20218;-71
2021/03/16 02:13:25;;;;;;;1.70;1.30;;;1.10;99.90;;;;;;5057777;28;20763;-71
2021/03/16 02:16:01;;;;;;;4.43;1.30;;;1.10;99.90;;;;;;5057589;28;20531;-71
2021/03/16 02:18:33;;;;;;;2.10;1.30;;;1.00;99.90;;;;;;5059285;28;20488;-71
2021/03/16 02:21:04;;;;;;;1.60;1.50;;;0.90;99.90;;;;;;5064334;28;20422;-71
2021/03/16 02:24:08;;;;;;;2.60;1.60;;;0.90;99.90;;;;;;5060973;28;20439;-71
2021/03/16 02:26:55;;;;;;;1.80;0.90;;;0.90;99.90;;;;;;5060533;28;20529;-71
2021/03/16 02:29:26;;;;;;;4.10;1.30;;;0.80;99.90;;;;;;5064110;28;20435;-71
2021/03/16 02:32:04;;;;;;;3.47;1.63;;;0.80;99.90;;;;;;5060345;28;20446;-71
2021/03/16 02:34:34;;;;;;;2.00;1.43;;;0.80;99.90;;;;;;5060652;28;20432;-71
2021/03/16 02:37:04;;;;;;;1.77;1.27;;;0.80;99.90;;;;;;5060610;28;20507;-71
2021/03/16 02:39:31;;;;;;;2.90;1.37;;;0.70;99.90;;;;;;5064812;28;20868;-71
2021/03/16 02:41:59;;;;;;;1.33;1.23;;;0.70;99.90;;;;;;5059904;28;20857;-71
2021/03/16 02:44:25;;;;;;;1.30;1.20;;;0.70;99.90;;;;;;5063093;28;20426;-71
2021/03/16 02:46:53;;;;;;;1.90;1.13;;;0.70;99.90;;;;;;5063565;28;20526;-71
2021/03/16 02:49:20;;;;;;;1.37;1.03;;;0.60;99.90;;;;;;5062908;28;20427;-71
2021/03/16 02:51:47;;;;;;;1.50;1.30;;;0.60;99.90;;;;;;5060050;28;20437;-70
2021/03/16 02:54:14;;;;;;;1.57;1.47;;;0.60;99.90;;;;;;5059603;28;20436;-71
2021/03/16 02:56:40;;;;;;;1.40;1.07;;;0.60;99.90;;;;;;5061710;28;20514;-71
2021/03/16 02:59:09;;;;;;;2.00;1.40;;;0.50;99.90;;;;;;5062224;28;20437;-71
2021/03/16 03:01:37;;;;;;;3.40;1.20;;;0.50;99.90;;;;;;5060245;28;20435;-71
2021/03/16 03:04:06;;;;;;;2.60;1.40;;;0.50;99.90;;;;;;5062606;28;20433;-70
2021/03/16 03:06:34;;;;;;;3.80;1.33;;;0.50;99.90;;;;;;5060109;28;20547;-70
2021/03/16 03:09:03;;;;;;;1.27;1.17;;;0.50;99.90;;;;;;5059611;28;20843;-71
2021/03/16 03:11:33;;;;;;;1.30;1.20;;;0.50;99.90;;;;;;5062091;28;20451;-71
2021/03/16 03:14:00;;;;;;;3.37;1.20;;;0.50;99.90;;;;;;5059414;28;20488;-70
2021/03/16 03:16:27;;;;;;;1.20;1.10;;;0.50;99.90;;;;;;5062868;28;20434;-70
2021/03/16 03:18:52;;;;;;;1.20;1.20;;;0.50;99.90;;;;;;5060270;28;20453;-71
2021/03/16 03:21:33;;;;;;;1.93;1.73;;;0.50;99.90;;;;;;5053150;28;20447;-71
2021/03/16 03:24:10;;;;;;;1.60;1.43;;;0.50;99.90;;;;;;5057915;28;20180;-71
2021/03/16 03:26:44;;;;;;;2.07;1.50;;;0.50;99.90;;;;;;5058429;28;20431;-71
2021/03/16 03:29:11;;;;;;;5.90;1.70;;;0.50;99.90;;;;;;5057962;28;21033;-71
2021/03/16 03:31:41;;;;;;;3.00;1.40;;;0.50;99.90;;;;;;5057918;28;20458;-71
2021/03/16 03:34:08;;;;;;;6.00;2.37;;;0.60;99.90;;;;;;5063084;28;20869;-71
2021/03/16 03:36:39;;;;;;;8.57;3.20;;;0.70;99.90;;;;;;5060048;28;20522;-71
2021/03/16 03:39:06;;;;;;;5.60;2.07;;;0.90;99.90;;;;;;5062058;28;20898;-71
2021/03/16 03:41:35;;;;;;;4.93;2.50;;;1.00;99.90;;;;;;5057627;28;20446;-71
2021/03/16 03:44:07;;;;;;;5.60;2.90;;;1.10;99.90;;;;;;5061156;28;20441;-71
2021/03/16 03:46:35;;;;;;;9.53;2.73;;;1.30;99.90;;;;;;5061073;28;20430;-71
2021/03/16 03:49:04;;;;;;;9.97;2.80;;;1.30;99.90;;;;;;5061527;28;20508;-71
2021/03/16 03:51:31;;;;;;;18.00;6.33;;;1.40;99.90;;;;;;5061064;28;20455;-71
2021/03/16 03:54:00;;;;;;;7.37;3.70;;;1.70;99.90;;;;;;5060973;28;20481;-71
2021/03/16 03:56:31;;;;;;;8.50;4.40;;;1.80;99.90;;;;;;5062499;28;20436;-71
2021/03/16 03:58:59;;;;;;;15.97;4.60;;;1.80;99.90;;;;;;5058264;28;20427;-71
2021/03/16 04:01:27;;;;;;;11.77;4.80;;;2.00;99.90;;;;;;5059577;28;20746;-71
2021/03/16 04:03:53;;;;;;;8.63;4.20;;;2.00;99.90;;;;;;5060928;28;20438;-71
2021/03/16 04:06:22;;;;;;;9.10;4.87;;;2.00;99.90;;;;;;5059103;28;20442;-71
2021/03/16 04:08:50;;;;;;;12.97;4.70;;;2.10;99.90;;;;;;5061391;28;20427;-71
2021/03/16 04:11:18;;;;;;;12.07;5.00;;;2.20;99.90;;;;;;5060101;28;20497;-71
2021/03/16 04:13:44;;;;;;;20.07;6.43;;;2.20;99.90;;;;;;5061460;28;20434;-71
2021/03/16 04:16:11;;;;;;;12.03;5.97;;;2.20;99.90;;;;;;5056529;28;20434;-71
2021/03/16 04:18:38;;;;;;;10.97;5.40;;;2.40;99.90;;;;;;5063558;28;20421;-71
2021/03/16 04:21:04;;;;;;;14.10;5.60;;;2.40;99.90;;;;;;5059128;28;20446;-71
2021/03/16 04:23:32;;;;;;;7.50;5.23;;;2.40;99.90;;;;;;5059986;28;20518;-71
2021/03/16 04:25:58;;;;;;;19.33;6.20;;;2.40;99.90;;;;;;5059320;28;20475;-71
2021/03/16 04:28:23;;;;;;;10.63;5.87;;;2.40;99.90;;;;;;5057804;28;20463;-72
2021/03/16 04:30:49;;;;;;;13.57;4.97;;;2.40;99.90;;;;;;5061030;28;20552;-71
2021/03/16 04:33:15;;;;;;;18.70;5.40;;;2.50;99.90;;;;;;5063480;28;20238;-71
2021/03/16 04:35:40;;;;;;;13.17;5.13;;;2.50;99.90;;;;;;5059348;28;20186;-71
2021/03/16 04:38:06;;;;;;;24.50;5.10;;;2.50;99.90;;;;;;5061256;28;20189;-72
2021/03/16 04:40:32;;;;;;;9.43;4.63;;;2.60;99.90;;;;;;5061784;28;20534;-71
2021/03/16 04:42:58;;;;;;;18.37;5.80;;;2.60;99.90;;;;;;5059048;28;20264;-71
2021/03/16 04:45:23;;;;;;;13.13;6.17;;;2.60;99.90;;;;;;5060785;28;20177;-71
2021/03/16 04:47:49;;;;;;;19.03;5.87;;;2.70;99.90;;;;;;5058330;28;20265;-71
2021/03/16 04:50:14;;;;;;;16.70;5.60;;;2.70;99.90;;;;;;5058323;28;20199;-71
2021/03/16 04:52:40;;;;;;;17.60;5.73;;;2.70;99.90;;;;;;5060538;28;20228;-71
2021/03/16 04:55:06;;;;;;;7.77;4.97;;;2.80;99.90;;;;;;5058562;28;20173;-71
2021/03/16 04:57:32;;;;;;;14.77;6.03;;;2.80;99.90;;;;;;5058221;28;20176;-71
2021/03/16 04:59:57;;;;;;;16.70;5.40;;;2.80;99.90;;;;;;5057497;28;20930;-71
2021/03/16 05:02:23;;;;;;;23.93;6.27;;;2.80;99.90;;;;;;5061937;28;20186;-71
2021/03/16 05:04:49;;;;;;;17.43;5.90;;;2.90;99.90;;;;;;5060253;28;20181;-71
2021/03/16 05:07:17;;;;;;;11.10;5.10;;;2.90;99.90;;;;;;5059237;28;20235;-71
2021/03/16 05:09:43;;;;;;;8.60;5.37;;;2.90;99.90;;;;;;5058044;28;20973;-70
2021/03/16 05:12:09;;;;;;;28.13;6.43;;;2.90;99.90;;;;;;5059973;28;20166;-70
2021/03/16 05:14:35;;;;;;;15.40;5.03;;;3.00;99.90;;;;;;5057770;28;20926;-70
2021/03/16 05:17:00;;;;;;;11.50;4.90;;;3.00;99.90;;;;;;5054793;28;20419;-70
2021/03/16 05:19:26;;;;;;;13.10;5.27;;;3.10;99.90;;;;;;5061881;28;20173;-70
2021/03/16 05:21:52;;;;;;;11.33;5.17;;;3.10;99.90;;;;;;5059984;28;20176;-70
2021/03/16 05:24:17;;;;;;;11.53;5.07;;;3.00;99.90;;;;;;5059810;28;20629;-70
2021/03/16 05:26:43;;;;;;;9.03;4.60;;;3.10;99.90;;;;;;5056754;28;20173;-70
2021/03/16 05:29:09;;;;;;;17.70;6.20;;;3.10;99.90;;;;;;5058895;28;20608;-70
2021/03/16 05:31:34;;;;;;;14.00;4.40;;;3.20;99.90;;;;;;5058373;28;20271;-70
2021/03/16 05:34:00;;;;;;;15.83;4.33;;;3.20;99.90;;;;;;5056475;28;20197;-69
2021/03/16 05:36:26;;;;;;;19.83;5.47;;;3.20;99.90;;;;;;5059303;28;20522;-70
2021/03/16 05:38:51;;;;;;;7.13;3.80;;;3.30;99.90;;;;;;5056721;28;20236;-70
2021/03/16 05:41:19;;;;;;;13.97;4.60;;;3.30;99.90;;;;;;5054865;28;20191;-70
2021/03/16 05:43:47;;;;;;;9.90;5.43;;;3.30;99.90;;;;;;5073891;28;20273;-70
2021/03/16 05:46:14;;;;;;;15.50;4.47;;;3.30;99.90;;;;;;5052535;28;20510;-70
2021/03/16 05:48:40;;;;;;;13.17;3.63;;;3.30;99.90;;;;;;5052489;28;20518;-69
2021/03/16 05:51:06;;;;;;;17.17;3.80;;;3.40;99.90;;;;;;5053158;28;20452;-70
2021/03/16 05:53:32;;;;;;;12.13;4.10;;;3.50;99.90;;;;;;5063394;28;20879;-69
2021/03/16 05:55:59;;;;;;;10.73;3.77;;;3.60;99.90;;;;;;5060699;28;21062;-70
2021/03/16 05:58:25;;;;;;;6.70;3.10;;;3.60;99.90;;;;;;5060382;28;20944;-70
2021/03/16 06:00:51;;;;;;;27.27;4.50;;;3.60;99.90;;;;;;5060456;28;20471;-70
2021/03/16 06:03:17;;;;;;;15.03;4.00;;;3.60;99.90;;;;;;5061663;28;20433;-69
2021/03/16 06:05:43;;;;;;;11.20;3.47;;;3.70;99.90;;;;;;5061850;28;20764;-70
2021/03/16 06:08:08;;;;;;;11.07;2.93;;;3.70;99.90;;;;;;5055366;28;20529;-69
2021/03/16 06:10:34;;;;;;;11.73;3.83;;;3.70;99.90;;;;;;5057013;28;20204;-70
2021/03/16 06:13:13;;;;;;;13.60;3.80;;;3.80;99.90;;;;;;5053181;28;20244;-70
2021/03/16 06:15:42;;;;;;;11.37;4.40;;;3.80;99.90;;;;;;5056081;28;20172;-70
2021/03/16 06:18:10;;;;;;;4.50;2.70;;;3.80;99.90;;;;;;5054236;28;20418;-70
2021/03/16 06:20:36;;;;;;;14.80;4.03;;;3.90;99.90;;;;;;5055060;28;20442;-69
2021/03/16 06:23:08;;;;;;;3.70;2.57;;;3.90;99.90;;;;;;5052135;28;20474;-69
2021/03/16 06:25:44;;;;;;;6.40;2.53;;;4.00;99.90;;;;;;5058751;28;20436;-70
2021/03/16 06:28:15;;;;;;;8.33;3.40;;;4.00;99.90;;;;;;5061035;28;20490;-69
2021/03/16 06:30:41;;;;;;;5.93;2.70;;;4.10;99.90;;;;;;5056458;28;20956;-69
2021/03/16 06:33:21;;;;;;;14.20;3.07;;;4.10;99.90;;;;;;5059676;28;20773;-69
2021/03/16 06:36:03;;;;;;;16.20;2.90;;;4.10;99.90;;;;;;5058524;28;20426;-69
2021/03/16 06:38:30;;;;;;;6.80;2.60;;;4.10;99.90;;;;;;5054733;28;20430;-69
2021/03/16 06:41:14;;;;;;;5.40;2.57;;;4.30;99.90;;;;;;5052754;28;20459;-69
2021/03/16 06:43:41;;;;;;;7.30;2.40;;;4.30;99.90;;;;;;5054444;28;20429;-69
2021/03/16 06:46:08;;;;;;;5.47;2.47;;;4.30;99.90;;;;;;5059668;28;20440;-70
2021/03/16 06:48:36;;;;;;;6.13;3.17;;;4.40;99.90;;;;;;5062104;28;20432;-70
2021/03/16 06:51:15;;;;;;;7.83;2.70;;;4.40;99.90;;;;;;5055078;28;20502;-69
2021/03/16 06:53:41;;;;;;;4.10;2.00;;;4.40;99.90;;;;;;5058038;28;20892;-70
2021/03/16 06:56:07;;;;;;;10.23;3.03;;;4.40;99.90;;;;;;5061867;28;20490;-69
2021/03/16 06:58:35;;;;;;;6.03;2.50;;;4.50;99.90;;;;;;5057410;28;20166;-70
2021/03/16 07:01:04;;;;;;;10.47;2.63;;;4.50;99.90;;;;;;5060829;28;21009;-69
2021/03/16 07:03:30;;;;;;;3.30;2.47;;;4.50;99.90;;;;;;5057268;28;20588;-70
2021/03/16 07:06:16;;;;;;;9.93;2.53;;;4.50;99.90;;;;;;5060238;28;20522;-70
2021/03/16 07:08:43;;;;;;;21.07;4.10;;;4.60;99.90;;;;;;5061508;28;20187;-70
2021/03/16 07:11:13;;;;;;;3.37;2.40;;;4.70;99.90;;;;;;5059455;28;20446;-69
2021/03/16 07:13:40;;;;;;;7.50;2.80;;;4.60;99.90;;;;;;5059291;28;20825;-70
2021/03/16 07:16:07;;;;;;;8.37;2.97;;;4.70;99.90;;;;;;5058849;28;20463;-69
2021/03/16 07:18:35;;;;;;;12.67;2.93;;;4.60;99.90;;;;;;5055740;28;20916;-70
2021/03/16 07:21:18;;;;;;;10.33;2.83;;;4.70;99.90;;;;;;5057721;28;20430;-70
2021/03/16 07:23:54;;;;;;;6.53;2.60;;;4.70;99.90;;;;;;5058371;28;20946;-70
2021/03/16 07:26:21;;;;;;;6.00;2.57;;;4.70;99.90;;;;;;5059208;28;20420;-70
2021/03/16 07:28:47;;;;;;;6.70;2.90;;;4.80;99.90;;;;;;5053728;28;20442;-69
2021/03/16 07:31:14;;;;;;;8.53;2.00;;;4.80;99.90;;;;;;5057204;28;20575;-69
2021/03/16 07:33:41;;;;;;;5.23;2.53;;;4.90;99.90;;;;;;5057300;28;20461;-69
2021/03/16 07:36:07;;;;;;;9.30;2.20;;;4.90;99.90;;;;;;5058977;28;20473;-69
2021/03/16 07:38:35;;;;;;;7.00;2.53;;;4.90;99.90;;;;;;5059405;28;20470;-70
2021/03/16 07:41:03;;;;;;;12.37;1.83;;;4.90;99.90;;;;;;5061469;28;20809;-69
2021/03/16 07:43:37;;;;;;;6.53;2.60;;;5.00;99.90;;;;;;5056924;28;20438;-70
2021/03/16 07:46:17;;;;;;;6.93;2.00;;;5.10;99.90;;;;;;5056116;28;20423;-70
2021/03/16 07:48:45;;;;;;;7.80;2.10;;;5.10;99.90;;;;;;5060419;28;20430;-70
2021/03/16 07:51:16;;;;;;;8.73;3.60;;;5.20;99.90;;;;;;5058416;28;20788;-70
2021/03/16 07:53:53;;;;;;;7.20;2.30;;;5.20;99.90;;;;;;5061527;28;20517;-69
2021/03/16 07:56:27;;;;;;;9.13;2.30;;;5.20;99.90;;;;;;5061260;28;20453;-70
2021/03/16 07:58:53;;;;;;;11.07;2.67;;;5.20;99.90;;;;;;5058023;28;20447;-70
2021/03/16 08:01:19;;;;;;;6.87;1.97;;;5.20;99.90;;;;;;5059372;28;20461;-70
2021/03/16 08:03:45;;;;;;;7.27;1.97;;;5.30;99.90;;;;;;5059537;28;20451;-70
2021/03/16 08:06:28;;;;;;;6.53;1.80;;;5.40;99.90;;;;;;5057699;28;20258;-70
2021/03/16 08:08:54;;;;;;;8.07;1.93;;;5.40;99.90;;;;;;5059321;28;20513;-70
2021/03/16 08:11:20;;;;;;;8.30;2.53;;;5.50;99.90;;;;;;5057330;28;20463;-70
2021/03/16 08:13:59;;;;;;;6.80;2.23;;;5.50;99.90;;;;;;5059538;28;20463;-70
2021/03/16 08:16:36;;;;;;;6.80;2.70;;;5.60;99.90;;;;;;5059008;28;20435;-70
2021/03/16 08:19:15;;;;;;;8.33;2.37;;;5.60;99.90;;;;;;5057630;28;20485;-70
2021/03/16 08:21:42;;;;;;;6.30;2.27;;;5.60;99.90;;;;;;5072531;28;20457;-70
2021/03/16 08:24:10;;;;;;;3.43;1.90;;;5.70;99.90;;;;;;5058180;28;20437;-70
2021/03/16 08:26:47;;;;;;;8.20;2.43;;;5.70;99.90;;;;;;5055248;28;20439;-70
2021/03/16 08:29:14;;;;;;;7.50;2.20;;;5.80;99.90;;;;;;5058654;28;20509;-70
2021/03/16 08:31:40;;;;;;;13.37;2.37;;;5.90;99.90;;;;;;5056601;28;20492;-70
2021/03/16 08:34:09;;;;;;;5.50;1.67;;;5.90;99.90;;;;;;5057206;28;20423;-70
2021/03/16 08:36:42;;;;;;;7.97;2.00;;;5.90;99.90;;;;;;5059452;28;20521;-70
2021/03/16 08:39:19;;;;;;;9.97;1.87;;;5.80;99.90;;;;;;5059828;28;20522;-70
2021/03/16 08:42:02;;;;;;;12.50;2.27;;;5.90;99.90;;;;;;5057767;28;20864;-70
2021/03/16 08:44:31;;;;;;;13.23;2.73;;;6.00;99.90;;;;;;5055318;28;20603;-70
2021/03/16 08:47:15;;;;;;;10.00;2.27;;;6.00;99.90;;;;;;5057047;28;20439;-70
2021/03/16 08:49:43;;;;;;;7.53;2.23;;;6.10;99.90;;;;;;5057599;28;20480;-69
2021/03/16 08:52:27;;;;;;;10.47;1.90;;;6.10;99.90;;;;;;5057769;28;20426;-70
2021/03/16 08:54:55;;;;;;;5.53;2.20;;;6.20;99.90;;;;;;5059721;28;20427;-70
2021/03/16 08:57:22;;;;;;;5.70;2.83;;;6.10;99.90;;;;;;5056726;28;21014;-70
2021/03/16 08:59:56;;;;;;;5.50;1.40;;;6.10;99.90;;;;;;5052724;28;20431;-70
2021/03/16 09:02:24;;;;;;;6.40;2.53;;;6.10;99.90;;;;;;5055160;28;20433;-70
2021/03/16 09:04:50;;;;;;;3.13;1.80;;;6.10;99.90;;;;;;5058532;28;20463;-70
2021/03/16 09:07:26;;;;;;;9.83;3.00;;;6.20;99.90;;;;;;5056489;28;20795;-69
2021/03/16 09:10:08;;;;;;;3.63;1.60;;;6.20;99.90;;;;;;5052590;28;20534;-69
2021/03/16 09:12:35;;;;;;;5.43;2.50;;;6.30;99.90;;;;;;5057778;28;20435;-69
2021/03/16 09:15:25;;;;;;;5.97;2.10;;;6.30;99.90;;;;;;5057516;28;20459;-70
2021/03/16 09:17:53;;;;;;;5.00;1.90;;;6.30;99.90;;;;;;5058665;28;20463;-70
2021/03/16 09:20:29;;;;;;;5.10;2.20;;;6.40;99.90;;;;;;5052624;28;20442;-69
2021/03/16 09:23:01;;;;;;;9.17;1.97;;;6.40;99.90;;;;;;5049410;28;20427;-69
2021/03/16 09:25:28;;;;;;;8.50;2.10;;;6.50;99.90;;;;;;5056706;28;20745;-70
2021/03/16 09:28:00;;;;;;;13.13;2.43;;;6.40;99.90;;;;;;5052142;28;20449;-69
2021/03/16 09:30:36;;;;;;;10.40;1.90;;;6.30;99.90;;;;;;5054497;28;20829;-69
2021/03/16 09:33:05;;;;;;;5.70;2.53;;;6.40;99.90;;;;;;5054814;28;20504;-69
2021/03/16 09:35:30;;;;;;;14.23;2.43;;;6.50;99.90;;;;;;5059087;28;20549;-70
2021/03/16 09:37:57;;;;;;;6.07;1.97;;;6.50;99.90;;;;;;5058042;28;20535;-69
2021/03/16 09:40:37;;;;;;;12.03;2.40;;;6.50;99.90;;;;;;5058058;28;20674;-70
2021/03/16 09:43:14;;;;;;;7.10;2.77;;;6.50;99.90;;;;;;5055501;28;20427;-69
2021/03/16 09:45:48;;;;;;;5.87;2.03;;;6.40;99.90;;;;;;5053883;28;20428;-69
2021/03/16 09:48:18;;;;;;;17.93;3.43;;;6.40;99.90;;;;;;5059221;28;20426;-69
2021/03/16 09:50:45;;;;;;;6.63;2.43;;;6.40;99.90;;;;;;5055878;28;20465;-69
2021/03/16 09:53:14;;;;;;;9.63;2.67;;;6.50;99.90;;;;;;5057462;28;20776;-69
2021/03/16 09:55:43;;;;;;;13.57;2.60;;;6.50;99.90;;;;;;5053924;28;20480;-69
2021/03/16 09:58:26;;;;;;;11.83;2.43;;;6.40;99.90;;;;;;5055925;28;20581;-69
2021/03/16 10:00:52;;;;;;;20.57;2.50;;;6.30;99.90;;;;;;5055483;28;20930;-69
2021/03/16 10:03:19;;;;;;;6.27;2.37;;;6.40;99.90;;;;;;5051680;28;20444;-69
2021/03/16 10:05:46;;;;;;;13.50;3.30;;;6.40;99.90;;;;;;5056676;28;20954;-69
2021/03/16 10:08:32;;;;;;;10.80;2.37;;;6.50;99.90;;;;;;5051116;28;20752;-69
2021/03/16 10:10:58;;;;;;;18.67;3.40;;;6.60;99.90;;;;;;5054655;28;20527;-69
2021/03/16 10:13:35;;;;;;;9.97;2.17;;;6.60;99.90;;;;;;5056366;28;20998;-69
2021/03/16 10:16:13;;;;;;;12.37;2.30;;;6.70;99.90;;;;;;5054809;28;20174;-69
2021/03/16 10:18:48;;;;;;;9.33;2.20;;;6.70;99.90;;;;;;5058283;28;20442;-69
2021/03/16 10:21:14;;;;;;;5.97;1.70;;;6.70;99.90;;;;;;5060801;28;20423;-69
2021/03/16 10:23:40;;;;;;;7.73;1.80;;;6.80;99.90;;;;;;5059928;28;20493;-69
2021/03/16 10:26:08;;;;;;;6.83;2.10;;;6.90;99.90;;;;;;5060060;28;20869;-69
2021/03/16 10:28:41;;;;;;;9.23;2.73;;;7.00;99.90;;;;;;5068365;28;20184;-69
2021/03/16 10:31:11;;;;;;;16.27;2.97;;;7.10;99.90;;;;;;5060873;28;20544;-70
2021/03/16 10:33:38;;;;;;;9.10;2.60;;;7.10;99.90;;;;;;5061485;28;20497;-70
2021/03/16 10:36:04;;;;;;;6.43;2.13;;;7.20;99.90;;;;;;5057089;28;20519;-68
2021/03/16 10:38:30;;;;;;;11.30;2.90;;;7.30;99.90;;;;;;5045057;28;20990;-70
2021/03/16 10:40:56;;;;;;;10.90;3.47;;;7.30;99.90;;;;;;5061159;28;20466;-70
2021/03/16 10:43:21;;;;;;;5.73;2.57;;;7.20;99.90;;;;;;5061804;28;20188;-68
2021/03/16 10:45:47;;;;;;;7.77;3.33;;;7.30;99.90;;;;;;5059981;28;20238;-68
2021/03/16 10:48:13;;;;;;;14.87;4.60;;;7.30;99.90;;;;;;5061996;28;20184;-68
2021/03/16 10:50:38;;;;;;;7.40;2.70;;;7.30;99.90;;;;;;5061207;28;20630;-68
2021/03/16 10:53:04;;;;;;;8.13;2.50;;;7.20;99.90;;;;;;5062589;28;20177;-68
2021/03/16 10:55:30;;;;;;;12.23;3.53;;;7.20;99.90;;;;;;5056360;28;20184;-68
2021/03/16 10:57:56;;;;;;;9.23;2.17;;;7.30;99.90;;;;;;5059525;28;20209;-68
2021/03/16 11:00:22;;;;;;;9.60;2.87;;;7.40;99.90;;;;;;5062049;28;20215;-68
2021/03/16 11:02:47;;;;;;;8.33;2.77;;;7.40;99.90;;;;;;5057927;28;20182;-68
2021/03/16 11:05:13;;;;;;;8.93;2.40;;;7.40;99.90;;;;;;5058227;28;20768;-68
2021/03/16 11:07:39;;;;;;;4.30;1.80;;;7.40;99.90;;;;;;5061650;28;20558;-69
2021/03/16 11:10:06;;;;;;;8.33;2.57;;;7.50;99.90;;;;;;5052967;28;20455;-69
2021/03/16 11:12:33;;;;;;;6.10;3.00;;;7.60;99.90;;;;;;5058571;28;20175;-68
2021/03/16 11:14:58;;;;;;;13.53;2.60;;;7.60;99.90;;;;;;5059450;28;20761;-69
2021/03/16 11:17:24;;;;;;;11.53;2.57;;;7.50;99.90;;;;;;5054639;28;20518;-69
2021/03/16 11:19:51;;;;;;;4.50;2.40;;;7.60;99.90;;;;;;5059898;28;20178;-68
2021/03/16 11:22:17;;;;;;;6.93;3.80;;;7.70;99.90;;;;;;5059623;28;20178;-68
2021/03/16 11:24:43;;;;;;;4.10;2.23;;;7.70;99.90;;;;;;5056613;28;20790;-69
2021/03/16 11:27:08;;;;;;;5.77;2.30;;;7.70;99.90;;;;;;5062562;28;20617;-68
2021/03/16 11:29:34;;;;;;;7.70;2.43;;;7.80;99.90;;;;;;5057111;28;20176;-68
2021/03/16 11:32:00;;;;;;;8.27;2.90;;;7.80;99.90;;;;;;5058460;28;20197;-68
2021/03/16 11:34:26;;;;;;;6.80;1.93;;;7.80;99.90;;;;;;5054097;28;20172;-69
2021/03/16 11:36:52;;;;;;;8.00;2.80;;;7.80;99.90;;;;;;5058025;28;20298;-69
2021/03/16 11:39:17;;;;;;;8.23;2.40;;;7.60;99.90;;;;;;5055431;28;20611;-70
2021/03/16 11:41:43;;;;;;;9.27;3.10;;;7.60;99.90;;;;;;5058539;28;20177;-71
2021/03/16 11:44:09;;;;;;;7.33;2.03;;;7.80;99.90;;;;;;5061273;28;20180;-70
2021/03/16 11:46:35;;;;;;;11.67;2.63;;;7.90;99.90;;;;;;5061435;28;20677;-70
2021/03/16 11:49:00;;;;;;;6.63;2.33;;;7.70;99.90;;;;;;5062144;28;20173;-70
2021/03/16 11:51:26;;;;;;;5.47;2.17;;;7.50;99.90;;;;;;5059189;28;20215;-69
2021/03/16 11:53:51;;;;;;;10.20;2.30;;;7.50;99.90;;;;;;5058996;28;20683;-71
2021/03/16 11:56:17;;;;;;;5.07;1.90;;;7.60;99.90;;;;;;5057602;28;20185;-70
2021/03/16 11:58:43;;;;;;;7.03;1.83;;;7.70;99.90;;;;;;5061956;28;20315;-70
2021/03/16 12:01:08;;;;;;;13.47;1.60;;;7.70;99.90;;;;;;5057718;28;20642;-71
2021/03/16 12:03:34;;;;;;;4.20;1.83;;;7.70;99.90;;;;;;5053815;28;20548;-71
2021/03/16 12:06:00;;;;;;;8.10;2.40;;;7.90;99.90;;;;;;5055762;28;20213;-71
2021/03/16 12:08:26;;;;;;;5.70;1.87;;;8.10;99.90;;;;;;5061002;28;20525;-71
2021/03/16 12:10:52;;;;;;;5.57;1.70;;;8.20;99.90;;;;;;5057713;28;20209;-71
2021/03/16 12:13:17;;;;;;;5.43;1.90;;;8.10;99.90;;;;;;5062050;28;20172;-71
2021/03/16 12:15:43;;;;;;;4.70;1.80;;;8.10;99.90;;;;;;5063543;28;20342;-70
2021/03/16 12:18:09;;;;;;;7.70;1.70;;;8.20;99.90;;;;;;5059096;28;20182;-71
2021/03/16 12:20:35;;;;;;;5.67;2.07;;;8.30;99.90;;;;;;5057111;28;20217;-71
2021/03/16 12:23:00;;;;;;;8.57;1.93;;;8.20;99.90;;;;;;5057458;28;20180;-71
2021/03/16 12:25:26;;;;;;;7.37;1.80;;;8.20;99.90;;;;;;5059962;28;20562;-70
2021/03/16 12:27:52;;;;;;;7.70;1.90;;;8.20;99.90;;;;;;5059989;28;20184;-71
2021/03/16 12:30:18;;;;;;;2.70;1.73;;;8.20;99.90;;;;;;5060562;28;20208;-70
2021/03/16 12:32:43;;;;;;;11.10;1.77;;;8.10;99.90;;;;;;5058250;28;20208;-71
2021/03/16 12:35:12;;;;;;;4.40;1.83;;;8.10;99.90;;;;;;5060560;28;20492;-71
2021/03/16 12:37:38;;;;;;;9.50;2.73;;;8.10;99.90;;;;;;5057532;28;20501;-71
2021/03/16 12:40:04;;;;;;;8.20;2.60;;;8.20;99.90;;;;;;5057121;28;20483;-70
2021/03/16 12:42:31;;;;;;;10.43;2.47;;;8.10;99.90;;;;;;5061717;28;20438;-70
2021/03/16 12:44:57;;;;;;;5.77;2.17;;;8.20;99.90;;;;;;5059423;28;20525;-70
2021/03/16 12:47:24;;;;;;;6.83;1.93;;;8.30;99.90;;;;;;5059345;28;20890;-70
2021/03/16 12:49:50;;;;;;;8.53;1.73;;;8.40;99.90;;;;;;5056963;28;20463;-70
2021/03/16 12:52:16;;;;;;;5.27;1.50;;;8.40;99.90;;;;;;5063410;28;20425;-70
2021/03/16 12:54:42;;;;;;;4.07;1.63;;;8.50;99.90;;;;;;5056569;28;20445;-70
2021/03/16 12:57:07;;;;;;;9.13;1.60;;;8.60;99.90;;;;;;5058512;28;20173;-70
2021/03/16 12:59:33;;;;;;;4.10;1.60;;;8.60;99.90;;;;;;5061405;28;20181;-70
2021/03/16 13:01:59;;;;;;;4.37;1.60;;;8.60;99.90;;;;;;5060858;28;20173;-70